createdAt,value
2022-12-03T05:58:26.482Z,17.00
2022-12-03T05:59:57.885Z,17.31
2022-12-03T06:01:29.281Z,17.62
2022-12-03T06:03:00.794Z,17.91
2022-12-03T06:04:32.352Z,18.15
2022-12-03T06:06:03.886Z,18.36
2022-12-03T06:07:35.299Z,18.53
2022-12-03T06:09:06.713Z,18.70
2022-12-03T06:10:38.093Z,18.84
2022-12-03T06:12:09.493Z,18.98
2022-12-03T06:13:40.888Z,19.10
2022-12-03T06:15:12.386Z,19.21
2022-12-03T06:16:43.875Z,19.31
2022-12-03T06:18:15.304Z,19.41
2022-12-03T06:19:46.767Z,19.49
2022-12-03T06:21:18.169Z,19.57
2022-12-03T06:22:49.559Z,19.64
2022-12-03T06:24:20.969Z,19.71
2022-12-03T06:25:52.359Z,19.77
2022-12-03T06:27:23.752Z,19.83
2022-12-03T06:28:55.203Z,19.89
2022-12-03T06:30:26.642Z,19.91
2022-12-03T06:31:58.077Z,19.95
2022-12-03T06:33:29.469Z,19.98
2022-12-03T06:35:00.883Z,20.00
2022-12-03T06:36:32.281Z,20.04
2022-12-03T06:38:03.680Z,20.06
2022-12-03T06:39:35.070Z,20.07
2022-12-03T06:41:06.434Z,20.09
2022-12-03T06:42:37.835Z,20.09
2022-12-03T06:44:09.602Z,20.11
2022-12-03T06:45:46.134Z,20.12
2022-12-03T06:47:19.081Z,20.13
2022-12-03T06:48:50.468Z,20.14
2022-12-03T06:50:21.856Z,20.15
2022-12-03T06:51:53.247Z,20.08
2022-12-03T06:53:24.661Z,20.17
2022-12-03T06:54:57.114Z,20.20
2022-12-03T06:56:35.062Z,20.20
2022-12-03T06:58:08.356Z,20.21
2022-12-03T06:59:39.727Z,20.21
2022-12-03T07:01:11.197Z,20.22
2022-12-03T07:02:42.665Z,20.21
2022-12-03T07:04:14.109Z,20.20
2022-12-03T07:05:45.511Z,20.19
2022-12-03T07:07:16.907Z,20.19
2022-12-03T07:08:48.373Z,20.20
2022-12-03T07:10:19.777Z,20.16
2022-12-03T07:11:51.261Z,20.16
2022-12-03T07:13:22.660Z,20.16
2022-12-03T07:14:54.278Z,20.15
2022-12-03T07:16:26.549Z,20.13
2022-12-03T07:18:01.357Z,20.13
2022-12-03T07:19:33.253Z,20.12
2022-12-03T07:21:04.907Z,20.12
2022-12-03T07:22:36.323Z,20.11
2022-12-03T07:24:07.869Z,20.11
2022-12-03T07:25:39.276Z,20.10
2022-12-03T07:27:10.736Z,20.10
2022-12-03T07:28:42.112Z,20.08
2022-12-03T07:30:14.023Z,20.08
2022-12-03T07:31:45.553Z,20.07
2022-12-03T07:33:17.052Z,20.06
2022-12-03T07:34:48.443Z,20.06
2022-12-03T07:36:19.828Z,20.05
2022-12-03T07:37:51.314Z,20.04
2022-12-03T07:39:22.694Z,20.04
2022-12-03T07:40:54.076Z,20.03
2022-12-03T07:42:25.461Z,20.03
2022-12-03T07:43:57.904Z,20.02
2022-12-03T07:45:29.316Z,20.01
2022-12-03T07:47:00.734Z,20.02
2022-12-03T07:48:32.346Z,20.01
2022-12-03T07:50:04.360Z,20.01
2022-12-03T07:51:35.749Z,20.01
2022-12-03T07:53:07.150Z,20.01
2022-12-03T07:54:38.553Z,20.01
2022-12-03T07:56:09.965Z,20.00
2022-12-03T07:57:41.350Z,19.99
2022-12-03T07:59:12.772Z,19.99
2022-12-03T08:00:44.276Z,19.98
2022-12-03T08:02:21.007Z,19.98
2022-12-03T08:03:53.136Z,19.97
2022-12-03T08:05:24.539Z,19.98
2022-12-03T08:06:55.933Z,19.98
2022-12-03T08:08:27.695Z,19.97
2022-12-03T08:09:59.080Z,19.96
2022-12-03T08:11:30.500Z,19.97
2022-12-03T08:13:01.882Z,19.95
2022-12-03T08:14:33.269Z,19.95
2022-12-03T08:16:10.420Z,19.95
2022-12-03T08:17:41.930Z,19.96
2022-12-03T08:19:14.020Z,19.95
2022-12-03T08:20:48.627Z,19.95
2022-12-03T08:22:20.028Z,19.94
2022-12-03T08:23:51.427Z,19.95
2022-12-03T08:25:23.850Z,19.94
2022-12-03T08:26:55.262Z,19.89
2022-12-03T08:28:26.701Z,19.93
2022-12-03T08:29:58.144Z,19.93
2022-12-03T08:31:33.477Z,19.94
2022-12-03T08:33:21.916Z,19.93
2022-12-03T08:34:53.396Z,19.94
2022-12-03T08:36:25.635Z,19.95
2022-12-03T08:38:01.741Z,19.97
2022-12-03T08:39:34.317Z,19.99
2022-12-03T08:41:12.645Z,20.01
2022-12-03T08:42:44.074Z,20.02
2022-12-03T08:44:30.182Z,20.06
2022-12-03T08:46:01.803Z,20.09
2022-12-03T08:47:36.408Z,20.11
2022-12-03T08:49:08.458Z,20.14
2022-12-03T08:50:40.451Z,20.16
2022-12-03T08:52:21.118Z,20.20
2022-12-03T08:53:59.769Z,20.23
2022-12-03T08:55:36.440Z,20.25
2022-12-03T08:57:37.085Z,20.27
2022-12-03T08:59:14.718Z,20.29
2022-12-03T09:00:46.179Z,20.31
2022-12-03T09:02:18.904Z,20.33
2022-12-03T09:03:51.429Z,20.36
2022-12-03T09:05:23.509Z,20.38
2022-12-03T09:06:54.972Z,20.40
2022-12-03T09:08:26.408Z,20.41
2022-12-03T09:09:57.800Z,20.43
2022-12-03T09:11:29.193Z,20.45
2022-12-03T09:13:00.596Z,20.46
2022-12-03T09:14:32.139Z,20.46
2022-12-03T09:16:03.796Z,20.47
2022-12-03T09:17:35.318Z,20.48
2022-12-03T09:19:06.748Z,20.48
2022-12-03T09:20:38.137Z,20.50
2022-12-03T09:22:09.541Z,20.50
2022-12-03T09:23:40.992Z,20.50
2022-12-03T09:25:12.398Z,20.50
2022-12-03T09:26:43.808Z,20.50
2022-12-03T09:28:15.213Z,20.50
2022-12-03T09:29:46.618Z,20.51
2022-12-03T09:31:18.164Z,20.51
2022-12-03T09:32:49.618Z,20.51
2022-12-03T09:34:21.019Z,20.52
2022-12-03T09:35:52.441Z,20.52
2022-12-03T09:37:23.848Z,20.53
2022-12-03T09:38:55.271Z,20.54
2022-12-03T09:40:26.666Z,20.54
2022-12-03T09:41:58.091Z,20.55
2022-12-03T09:43:49.531Z,20.56
2022-12-03T09:45:22.253Z,20.58
2022-12-03T09:46:53.803Z,20.59
2022-12-03T09:48:25.202Z,20.59
2022-12-03T09:49:56.896Z,20.61
2022-12-03T09:51:30.451Z,20.62
2022-12-03T09:53:02.208Z,20.63
2022-12-03T09:54:33.906Z,20.65
2022-12-03T09:56:05.406Z,20.66
2022-12-03T09:57:36.877Z,20.66
2022-12-03T09:59:14.094Z,20.67
2022-12-03T10:00:49.088Z,20.67
2022-12-03T10:02:29.696Z,20.69
2022-12-03T10:04:01.220Z,20.67
2022-12-03T10:05:32.640Z,20.69
2022-12-03T10:07:04.024Z,20.69
2022-12-03T10:08:35.444Z,20.69
2022-12-03T10:10:07.316Z,20.69
2022-12-03T10:11:38.749Z,20.69
2022-12-03T10:13:12.877Z,20.70
2022-12-03T10:14:44.276Z,20.70
2022-12-03T10:16:16.544Z,20.70
2022-12-03T10:17:48.077Z,20.71
2022-12-03T10:19:22.362Z,20.71
2022-12-03T10:20:53.831Z,20.71
2022-12-03T10:22:25.403Z,20.70
2022-12-03T10:24:15.622Z,20.72
2022-12-03T10:25:50.834Z,20.72
2022-12-03T10:27:22.229Z,20.72
2022-12-03T10:28:53.638Z,20.72
2022-12-03T10:30:25.889Z,20.73
2022-12-03T10:31:58.052Z,20.73
2022-12-03T10:33:33.575Z,20.73
2022-12-03T10:35:23.978Z,20.72
2022-12-03T10:37:08.329Z,20.73
2022-12-03T10:38:39.758Z,20.72
2022-12-03T10:40:11.320Z,20.73
2022-12-03T10:41:43.200Z,20.73
2022-12-03T10:43:24.128Z,20.73
2022-12-03T10:45:15.229Z,20.73
2022-12-03T10:46:47.079Z,20.73
2022-12-03T10:48:19.622Z,20.74
2022-12-03T10:49:58.822Z,20.73
2022-12-03T10:51:30.338Z,20.75
2022-12-03T10:53:02.570Z,20.74
2022-12-03T10:54:34.120Z,20.74
2022-12-03T10:56:06.183Z,20.75
2022-12-03T10:57:42.398Z,20.76
2022-12-03T10:59:17.610Z,20.75
2022-12-03T11:00:49.552Z,20.76
2022-12-03T11:02:21.830Z,20.78
2022-12-03T11:03:53.994Z,20.78
2022-12-03T11:05:26.878Z,20.78
2022-12-03T11:06:58.530Z,20.78
2022-12-03T11:08:34.104Z,20.78
2022-12-03T11:10:05.778Z,20.78
2022-12-03T11:11:37.416Z,20.77
2022-12-03T11:13:27.536Z,20.78
2022-12-03T11:14:59.265Z,20.79
2022-12-03T11:16:39.669Z,20.79
2022-12-03T11:18:11.418Z,20.81
2022-12-03T11:19:43.864Z,20.80
2022-12-03T11:21:15.377Z,20.81
2022-12-03T11:22:47.394Z,20.81
2022-12-03T11:24:20.519Z,20.82
2022-12-03T11:25:52.144Z,20.82
2022-12-03T11:27:23.618Z,20.82
2022-12-03T11:28:55.897Z,20.82
2022-12-03T11:30:47.051Z,20.83
2022-12-03T11:32:37.305Z,20.84
2022-12-03T11:34:17.970Z,20.83
2022-12-03T11:36:01.554Z,20.83
2022-12-03T11:37:33.092Z,20.83
2022-12-03T11:39:04.624Z,20.84
2022-12-03T11:40:39.758Z,20.83
2022-12-03T11:42:23.226Z,20.83
2022-12-03T11:43:59.469Z,20.83
2022-12-03T11:45:32.016Z,20.84
2022-12-03T11:47:08.148Z,20.85
2022-12-03T11:48:45.699Z,20.85
2022-12-03T11:50:20.260Z,20.86
2022-12-03T11:51:51.818Z,20.87
2022-12-03T11:53:23.779Z,20.86
2022-12-03T11:54:57.551Z,20.87
2022-12-03T11:56:29.299Z,20.88
2022-12-03T11:58:01.525Z,20.88
2022-12-03T11:59:34.292Z,20.88
2022-12-03T12:01:06.217Z,20.89
2022-12-03T12:02:37.689Z,20.89
2022-12-03T12:04:26.312Z,20.90
2022-12-03T12:06:00.534Z,20.90
2022-12-03T12:07:35.638Z,20.90
2022-12-03T12:09:07.131Z,20.89
2022-12-03T12:10:39.439Z,20.89
2022-12-03T12:12:29.702Z,20.90
2022-12-03T12:14:01.705Z,20.89
2022-12-03T12:15:33.287Z,20.88
2022-12-03T12:17:04.685Z,20.88
2022-12-03T12:18:45.142Z,20.88
2022-12-03T12:20:26.099Z,20.88
2022-12-03T12:22:12.528Z,20.87
2022-12-03T12:23:44.723Z,20.88
2022-12-03T12:25:35.723Z,20.87
2022-12-03T12:27:08.015Z,20.87
2022-12-03T12:28:39.744Z,20.87
2022-12-03T12:30:15.008Z,20.87
2022-12-03T12:31:52.271Z,20.87
2022-12-03T12:33:25.233Z,20.88
2022-12-03T12:35:15.904Z,20.87
2022-12-03T12:36:47.377Z,20.87
2022-12-03T12:38:20.928Z,20.88
2022-12-03T12:39:53.063Z,20.88
2022-12-03T12:41:24.893Z,20.88
2022-12-03T12:42:57.070Z,20.89
2022-12-03T12:44:28.481Z,20.89
2022-12-03T12:46:13.559Z,20.89
2022-12-03T12:48:07.060Z,20.89
2022-12-03T12:49:38.473Z,20.90
2022-12-03T12:51:11.304Z,20.90
2022-12-03T12:52:50.304Z,20.89
2022-12-03T12:54:21.697Z,20.90
2022-12-03T12:55:57.665Z,20.87
2022-12-03T12:57:29.073Z,20.89
2022-12-03T12:59:13.671Z,20.90
2022-12-03T13:00:48.882Z,20.90
2022-12-03T13:02:26.593Z,20.90
2022-12-03T13:03:58.031Z,20.90
2022-12-03T13:05:39.959Z,20.89
2022-12-03T13:07:11.350Z,20.90
2022-12-03T13:08:43.128Z,20.89
2022-12-03T13:10:33.239Z,20.90
2022-12-03T13:12:04.887Z,20.89
2022-12-03T13:13:43.547Z,20.90
2022-12-03T13:15:33.827Z,20.89
2022-12-03T13:17:13.360Z,20.88
2022-12-03T13:19:02.995Z,20.89
2022-12-03T13:20:34.396Z,20.88
2022-12-03T13:22:22.087Z,20.89
2022-12-03T13:23:56.607Z,20.89
2022-12-03T13:25:58.922Z,20.89
2022-12-03T13:27:27.539Z,20.88
2022-12-03T13:28:58.956Z,20.88
2022-12-03T13:30:30.340Z,20.86
2022-12-03T13:32:02.172Z,20.84
2022-12-03T13:33:33.591Z,20.86
2022-12-03T13:35:07.808Z,20.86
2022-12-03T13:36:40.703Z,20.85
2022-12-03T13:38:12.450Z,20.85
2022-12-03T13:39:45.930Z,20.85
2022-12-03T13:41:18.904Z,20.85
2022-12-03T13:42:50.334Z,20.85
2022-12-03T13:44:21.715Z,20.84
2022-12-03T13:45:53.166Z,20.84
2022-12-03T13:47:24.615Z,20.84
2022-12-03T13:49:00.295Z,20.84
2022-12-03T13:50:37.128Z,20.85
2022-12-03T13:52:12.462Z,20.85
2022-12-03T13:53:43.856Z,20.86
2022-12-03T13:55:17.755Z,20.86
2022-12-03T13:56:49.420Z,20.87
2022-12-03T13:58:20.817Z,20.87
2022-12-03T13:59:53.067Z,20.86
2022-12-03T14:01:24.794Z,20.87
2022-12-03T14:02:56.273Z,20.87
2022-12-03T14:04:27.672Z,20.87
2022-12-03T14:05:59.122Z,20.88
2022-12-03T14:07:30.543Z,20.87
2022-12-03T14:09:02.074Z,20.87
2022-12-03T14:10:33.515Z,20.88
2022-12-03T14:12:05.008Z,20.87
2022-12-03T14:13:36.417Z,20.87
2022-12-03T14:15:08.005Z,20.87
2022-12-03T14:16:39.691Z,20.88
2022-12-03T14:18:11.188Z,20.89
2022-12-03T14:19:42.601Z,20.89
2022-12-03T14:21:14.249Z,20.88
2022-12-03T14:22:45.677Z,20.89
2022-12-03T14:24:17.077Z,20.89
2022-12-03T14:25:48.455Z,20.89
2022-12-03T14:27:20.046Z,20.89
2022-12-03T14:28:51.444Z,20.89
2022-12-03T14:30:22.881Z,20.89
2022-12-03T14:31:54.416Z,20.90
2022-12-03T14:33:25.873Z,20.90
2022-12-03T14:34:57.435Z,20.89
2022-12-03T14:36:28.840Z,20.88
2022-12-03T14:38:00.558Z,20.90
2022-12-03T14:39:31.987Z,20.90
2022-12-03T14:41:03.509Z,20.90
2022-12-03T14:42:35.409Z,20.91
2022-12-03T14:44:08.545Z,20.90
2022-12-03T14:45:40.827Z,20.91
2022-12-03T14:47:12.549Z,20.91
2022-12-03T14:48:43.974Z,20.91
2022-12-03T14:50:15.429Z,20.91
2022-12-03T14:51:46.842Z,20.92
2022-12-03T14:53:25.724Z,20.93
2022-12-03T14:54:58.756Z,20.92
2022-12-03T14:56:30.160Z,20.92
2022-12-03T14:58:01.660Z,20.93
2022-12-03T14:59:33.048Z,20.92
2022-12-03T15:01:04.576Z,20.93
2022-12-03T15:02:36.038Z,20.93
2022-12-03T15:04:07.497Z,20.93
2022-12-03T15:05:39.582Z,20.94
2022-12-03T15:07:10.963Z,20.95
2022-12-03T15:08:42.480Z,20.95
2022-12-03T15:10:13.904Z,20.94
2022-12-03T15:11:46.576Z,20.95
2022-12-03T15:13:18.223Z,20.95
2022-12-03T15:14:49.983Z,20.94
2022-12-03T15:16:21.392Z,20.96
2022-12-03T15:17:52.814Z,20.97
2022-12-03T15:19:24.226Z,20.97
2022-12-03T15:20:55.629Z,20.98
2022-12-03T15:22:27.032Z,20.98
2022-12-03T15:23:59.080Z,20.99
2022-12-03T15:25:30.608Z,21.00
2022-12-03T15:27:02.017Z,21.01
2022-12-03T15:28:33.517Z,21.03
2022-12-03T15:30:05.514Z,21.03
2022-12-03T15:31:37.085Z,21.03
2022-12-03T15:33:08.579Z,21.04
2022-12-03T15:34:40.248Z,21.05
2022-12-03T15:36:12.114Z,21.04
2022-12-03T15:37:46.556Z,21.04
2022-12-03T15:39:18.158Z,21.04
2022-12-03T15:40:49.705Z,21.04
2022-12-03T15:42:21.235Z,21.04
2022-12-03T15:43:52.637Z,21.03
2022-12-03T15:45:24.157Z,21.04
2022-12-03T15:46:55.696Z,21.03
2022-12-03T15:48:27.578Z,21.03
2022-12-03T15:49:59.120Z,21.01
2022-12-03T15:51:30.728Z,21.03
2022-12-03T15:53:02.141Z,21.02
2022-12-03T15:54:33.932Z,21.02
2022-12-03T15:56:05.601Z,21.03
2022-12-03T15:57:37.235Z,21.03
2022-12-03T15:59:08.900Z,21.03
2022-12-03T16:00:40.343Z,21.04
2022-12-03T16:02:11.915Z,21.04
2022-12-03T16:03:43.455Z,21.06
2022-12-03T16:05:15.297Z,21.05
2022-12-03T16:06:47.026Z,21.06
2022-12-03T16:08:18.588Z,21.06
2022-12-03T16:09:50.388Z,21.07
2022-12-03T16:11:22.466Z,21.07
2022-12-03T16:12:54.431Z,21.08
2022-12-03T16:14:27.466Z,21.08
2022-12-03T16:15:59.023Z,21.09
2022-12-03T16:17:30.460Z,21.09
2022-12-03T16:19:02.246Z,21.09
2022-12-03T16:20:33.845Z,21.10
2022-12-03T16:22:05.693Z,21.10
2022-12-03T16:23:37.360Z,21.11
2022-12-03T16:25:08.928Z,21.12
2022-12-03T16:26:40.504Z,21.13
2022-12-03T16:28:13.071Z,21.13
2022-12-03T16:29:44.681Z,21.14
2022-12-03T16:31:16.560Z,21.14
2022-12-03T16:32:48.427Z,21.14
2022-12-03T16:34:20.117Z,21.14
2022-12-03T16:35:52.020Z,21.15
2022-12-03T16:37:24.888Z,21.15
2022-12-03T16:38:56.433Z,21.16
2022-12-03T16:40:29.084Z,21.16
2022-12-03T16:42:01.665Z,21.15
2022-12-03T16:43:33.358Z,21.17
2022-12-03T16:45:05.229Z,21.18
2022-12-03T16:46:37.144Z,21.19
2022-12-03T16:48:08.717Z,21.20
2022-12-03T16:49:40.198Z,21.22
2022-12-03T16:51:12.879Z,21.24
2022-12-03T16:52:44.758Z,21.25
2022-12-03T16:54:16.397Z,21.27
2022-12-03T16:55:48.016Z,21.27
2022-12-03T16:57:19.580Z,21.28
2022-12-03T16:58:51.095Z,21.28
2022-12-03T17:00:22.573Z,21.29
2022-12-03T17:01:54.128Z,21.28
2022-12-03T17:03:30.338Z,21.30
2022-12-03T17:05:05.495Z,21.29
2022-12-03T17:06:37.302Z,21.28
2022-12-03T17:08:09.069Z,21.30
2022-12-03T17:09:40.831Z,21.30
2022-12-03T17:11:14.598Z,21.31
2022-12-03T17:13:08.663Z,21.30
2022-12-03T17:14:37.806Z,21.31
2022-12-03T17:16:09.259Z,21.31
2022-12-03T17:17:41.076Z,21.32
2022-12-03T17:19:12.832Z,21.33
2022-12-03T17:20:44.264Z,21.34
2022-12-03T17:22:15.678Z,21.36
2022-12-03T17:23:48.011Z,21.36
2022-12-03T17:25:19.484Z,21.38
2022-12-03T17:26:50.899Z,21.39
2022-12-03T17:28:24.090Z,21.38
2022-12-03T17:29:55.903Z,21.39
2022-12-03T17:31:27.844Z,21.38
2022-12-03T17:32:59.469Z,21.39
2022-12-03T17:34:31.243Z,21.39
2022-12-03T17:36:03.299Z,21.39
2022-12-03T17:37:35.265Z,21.39
2022-12-03T17:39:06.732Z,21.38
2022-12-03T17:40:38.264Z,21.38
2022-12-03T17:42:10.058Z,21.38
2022-12-03T17:43:41.653Z,21.37
2022-12-03T17:45:15.334Z,21.38
2022-12-03T17:46:47.157Z,21.41
2022-12-03T17:48:18.946Z,21.42
2022-12-03T17:49:50.445Z,21.44
2022-12-03T17:51:22.051Z,21.44
2022-12-03T17:52:53.964Z,21.46
2022-12-03T17:54:38.003Z,21.47
2022-12-03T17:56:17.346Z,21.47
2022-12-03T17:57:48.761Z,21.46
2022-12-03T17:59:20.402Z,21.46
2022-12-03T18:00:52.625Z,21.46
2022-12-03T18:02:25.520Z,21.45
2022-12-03T18:03:57.049Z,21.45
2022-12-03T18:05:28.843Z,21.45
2022-12-03T18:07:02.512Z,21.44
2022-12-03T18:08:34.336Z,21.43
2022-12-03T18:10:06.161Z,21.43
2022-12-03T18:11:37.619Z,21.41
2022-12-03T18:13:09.028Z,21.39
2022-12-03T18:14:42.409Z,21.36
2022-12-03T18:16:16.149Z,21.35
2022-12-03T18:17:48.007Z,21.32
2022-12-03T18:19:19.513Z,21.30
2022-12-03T18:20:51.832Z,21.30
2022-12-03T18:22:23.420Z,21.27
